Time;durP1;ratioP1;P1;durP2;ratioP2;P2;SDS_P1;SDS_P2;PMS_P1;PMS_P2;Temp;Humidity;BMP_temperature;BMP_pressure;BME280_temperature;BME280_humidity;BME280_pressure;Samples;Min_cycle;Max_cycle;Signal;HPM_P1;HPM_P2
2022/03/12 00:01:12;;;;;;;;;;;1.50;66.90;;;;;;5172872;28;19947;-86
2022/03/12 00:03:46;;;;;;;;;;;1.40;65.50;;;;;;5171445;28;20349;-87
2022/03/12 00:06:21;;;;;;;;;;;1.40;66.00;;;;;;5196430;28;19921;-87
2022/03/12 00:08:54;;;;;;;;;;;1.30;66.10;;;;;;5172470;28;19932;-87
2022/03/12 00:11:28;;;;;;;;;;;1.20;66.80;;;;;;5187878;28;19928;-87
2022/03/12 00:14:02;;;;;;;;;;;3.00;67.80;;;;;;5193328;28;19921;-87
2022/03/12 00:16:35;;;;;;;;;;;3.70;68.30;;;;;;5187352;28;19921;-87
2022/03/12 00:19:09;;;;;;;;;;;1.20;65.70;;;;;;5179288;28;19921;-87
2022/03/12 00:21:43;;;;;;;;;;;1.20;66.00;;;;;;5194265;28;20030;-87
2022/03/12 00:24:16;;;;;;;;;;;1.30;66.60;;;;;;5167755;28;19921;-88
2022/03/12 00:26:50;;;;;;;;;;;1.20;66.60;;;;;;5198923;28;19921;-87
2022/03/12 00:29:23;;;;;;;;;;;1.20;66.70;;;;;;5190306;28;19925;-88
2022/03/12 00:31:56;;;;;;;;;;;1.10;66.00;;;;;;5173685;28;19921;-87
2022/03/12 00:34:29;;;;;;;;;;;3.40;68.50;;;;;;5193452;28;19968;-88
2022/03/12 00:37:02;;;;;;;;;;;2.70;68.30;;;;;;5170161;28;19922;-87
2022/03/12 00:39:34;;;;;;;;;;;1.10;66.60;;;;;;5223651;28;19929;-87
2022/03/12 00:42:07;;;;;;;;;;;1.20;66.80;;;;;;5207197;28;19928;-87
2022/03/12 00:44:39;;;;;;;;;;;1.20;67.00;;;;;;5189910;28;19928;-87
2022/03/12 00:47:12;;;;;;;;;;;1.20;66.00;;;;;;5206279;28;20142;-87
2022/03/12 00:49:45;;;;;;;;;;;1.20;64.90;;;;;;5170837;28;19948;-87
2022/03/12 00:52:18;;;;;;;;;;;1.60;66.00;;;;;;5189415;28;19921;-88
2022/03/12 00:54:50;;;;;;;;;;;2.70;66.60;;;;;;5172727;28;19921;-87
2022/03/12 00:57:23;;;;;;;;;;;3.60;65.50;;;;;;5185075;28;19932;-88
2022/03/12 00:59:55;;;;;;;;;;;1.30;66.20;;;;;;5202883;28;19921;-86
2022/03/12 01:02:28;;;;;;;;;;;1.20;62.90;;;;;;5189013;28;20395;-87
2022/03/12 01:05:00;;;;;;;;;;;1.20;63.30;;;;;;5161230;28;19921;-87
2022/03/12 01:07:33;;;;;;;;;;;1.20;65.20;;;;;;5161730;28;19925;-87
2022/03/12 01:10:05;;;;;;;;;;;1.20;65.40;;;;;;5173524;28;19921;-87
2022/03/12 01:12:37;;;;;;;;;;;1.10;63.40;;;;;;5184254;22;19919;-42
2022/03/12 01:15:11;;;;;;;;;;;1.20;64.20;;;;;;5156863;28;19936;-42
2022/03/12 01:17:43;;;;;;;;;;;1.10;64.10;;;;;;5159964;28;19925;-37
2022/03/12 01:20:19;;;;;;;;;;;1.00;65.70;;;;;;5160962;28;20001;-41
2022/03/12 01:22:52;;;;;;;;;;;1.00;66.80;;;;;;5160823;28;19925;-39
2022/03/12 01:25:26;;;;;;;;;;;1.00;65.90;;;;;;5154392;28;20027;-39
2022/03/12 01:27:58;;;;;;;;;;;1.00;67.80;;;;;;5147528;23;20141;-84
2022/03/12 01:30:31;;;;;;;;;;;0.90;67.20;;;;;;5123495;28;20318;-84
2022/03/12 01:33:03;;;;;;;;;;;0.90;68.20;;;;;;5138822;28;20262;-84
2022/03/12 01:35:36;;;;;;;;;;;0.80;66.90;;;;;;5137239;28;19929;-83
2022/03/12 01:38:08;;;;;;;;;;;0.80;68.40;;;;;;5122996;28;19921;-82
2022/03/12 01:40:41;;;;;;;;;;;0.80;69.00;;;;;;5115982;28;19930;-84
2022/03/12 01:43:13;;;;;;;;;;;0.70;68.90;;;;;;5122195;28;19930;-84
2022/03/12 01:45:46;;;;;;;;;;;0.80;68.90;;;;;;5137530;28;20286;-83
2022/03/12 01:48:18;;;;;;;;;;;0.70;68.40;;;;;;5123030;28;19930;-84
2022/03/12 01:50:50;;;;;;;;;;;0.70;69.20;;;;;;5136734;28;19925;-84
2022/03/12 01:53:24;;;;;;;;;;;0.70;69.30;;;;;;5136648;28;20301;-84
2022/03/12 01:55:56;;;;;;;;;;;0.60;68.20;;;;;;5138164;28;19926;-84
2022/03/12 01:58:28;;;;;;;;;;;0.60;67.50;;;;;;5138164;28;19953;-84
2022/03/12 02:01:02;;;;;;;;;;;0.50;67.80;;;;;;5120241;28;19933;-83
2022/03/12 02:03:36;;;;;;;;;;;0.50;67.60;;;;;;5118209;28;19930;-85
2022/03/12 02:06:08;;;;;;;;;;;0.50;68.00;;;;;;5128791;28;19926;-83
2022/03/12 02:08:41;;;;;;;;;;;0.50;67.80;;;;;;5137811;28;19930;-82
2022/03/12 02:11:13;;;;;;;;;;;0.50;68.80;;;;;;5138938;28;19922;-83
2022/03/12 02:13:46;;;;;;;;;;;0.40;68.30;;;;;;5139983;28;19922;-84
2022/03/12 02:16:19;;;;;;;;;;;0.40;68.80;;;;;;5135295;28;19937;-82
2022/03/12 02:18:51;;;;;;;;;;;0.40;68.70;;;;;;5129332;28;20417;-82
2022/03/12 02:21:34;;;;;;;;;;;0.40;69.20;;;;;;5108463;28;20409;-83
2022/03/12 02:24:11;;;;;;;;;;;0.30;69.10;;;;;;5116931;28;19956;-82
2022/03/12 02:26:44;;;;;;;;;;;0.30;68.80;;;;;;5123869;28;21059;-84
2022/03/12 02:29:21;;;;;;;;;;;0.30;69.60;;;;;;5137190;28;21592;-84
2022/03/12 02:32:03;;;;;;;;;;;0.30;69.30;;;;;;5119587;28;19937;-83
2022/03/12 02:34:42;;;;;;;;;;;0.30;69.60;;;;;;5134442;28;19925;-83
2022/03/12 02:37:33;;;;;;;;;;;0.00;68.90;;;;;;5120136;28;19926;-83
2022/03/12 02:40:09;;;;;;;;;;;0.20;69.80;;;;;;5121857;28;20467;-83
2022/03/12 02:42:41;;;;;;;;;;;0.20;69.80;;;;;;5125011;28;19921;-83
2022/03/12 02:45:14;;;;;;;;;;;0.10;69.70;;;;;;5136988;28;19925;-83
2022/03/12 02:47:48;;;;;;;;;;;0.10;69.40;;;;;;5122480;28;19937;-82
2022/03/12 02:50:21;;;;;;;;;;;0.10;69.90;;;;;;5135208;28;19922;-84
2022/03/12 02:52:54;;;;;;;;;;;0.10;71.20;;;;;;5120501;28;19926;-84
2022/03/12 02:55:26;;;;;;;;;;;0.20;71.00;;;;;;5121190;28;20439;-84
2022/03/12 02:57:59;;;;;;;;;;;0.00;70.10;;;;;;5118366;28;19929;-84
2022/03/12 03:00:37;;;;;;;;;;;0.00;70.10;;;;;;5140766;28;20378;-83
2022/03/12 03:03:09;;;;;;;;;;;0.00;69.50;;;;;;5112362;28;20313;-85
2022/03/12 03:05:46;;;;;;;;;;;0.00;70.40;;;;;;5143027;28;19929;-83
2022/03/12 03:08:21;;;;;;;;;;;0.00;69.30;;;;;;5125586;28;19932;-83
2022/03/12 03:10:54;;;;;;;;;;;0.00;69.70;;;;;;5140239;28;19937;-83
2022/03/12 03:13:34;;;;;;;;;;;0.00;70.50;;;;;;5134361;28;19925;-82
2022/03/12 03:16:08;;;;;;;;;;;0.00;70.50;;;;;;5139358;28;19964;-82
2022/03/12 03:18:40;;;;;;;;;;;0.00;71.00;;;;;;5099835;28;19925;-83
2022/03/12 03:21:13;;;;;;;;;;;-0.20;70.40;;;;;;5146939;28;19925;-83
2022/03/12 03:23:46;;;;;;;;;;;-0.10;71.50;;;;;;5140517;28;20389;-82
2022/03/12 03:26:33;;;;;;;;;;;-0.10;71.20;;;;;;5140693;28;19926;-82
2022/03/12 03:29:06;;;;;;;;;;;-0.20;70.80;;;;;;5124566;28;19937;-83
2022/03/12 03:31:38;;;;;;;;;;;-0.20;72.00;;;;;;5124697;28;19922;-83
2022/03/12 03:34:10;;;;;;;;;;;-0.20;71.50;;;;;;5137150;28;19926;-84
2022/03/12 03:36:46;;;;;;;;;;;-0.30;70.90;;;;;;5129335;28;19922;-84
2022/03/12 03:39:22;;;;;;;;;;;-0.30;70.50;;;;;;5128422;28;19926;-83
2022/03/12 03:41:54;;;;;;;;;;;-0.30;71.40;;;;;;5140658;28;19933;-85
2022/03/12 03:44:29;;;;;;;;;;;-0.30;72.40;;;;;;5145696;28;19953;-84
2022/03/12 03:47:02;;;;;;;;;;;-0.30;71.60;;;;;;5227173;23;19931;-40
2022/03/12 03:49:34;;;;;;;;;;;-0.30;71.60;;;;;;5218419;28;20180;-42
2022/03/12 03:52:07;;;;;;;;;;;-0.30;71.40;;;;;;5200693;28;20398;-40
2022/03/12 03:54:41;;;;;;;;;;;-0.30;72.40;;;;;;5214812;28;20249;-40
2022/03/12 03:57:17;;;;;;;;;;;-0.30;72.80;;;;;;5219665;28;19932;-41
2022/03/12 03:59:49;;;;;;;;;;;-0.40;71.30;;;;;;5224327;22;19915;-32
2022/03/12 04:02:21;;;;;;;;;;;-0.30;71.90;;;;;;5167475;28;19926;-32
2022/03/12 04:04:54;;;;;;;;;;;-0.30;72.10;;;;;;5162344;28;19925;-32
2022/03/12 04:07:26;;;;;;;;;;;-0.30;72.30;;;;;;5171356;28;19925;-32
2022/03/12 04:09:58;;;;;;;;;;;-0.40;72.00;;;;;;5154829;28;19933;-32
2022/03/12 04:12:31;;;;;;;;;;;-0.40;72.30;;;;;;5149787;28;19944;-32
2022/03/12 04:15:03;;;;;;;;;;;-0.40;72.00;;;;;;5154553;28;19930;-32
2022/03/12 04:17:35;;;;;;;;;;;-0.40;72.20;;;;;;5138121;28;19925;-32
2022/03/12 04:20:08;;;;;;;;;;;-0.30;72.20;;;;;;5144918;28;19940;-32
2022/03/12 04:22:40;;;;;;;;;;;-0.50;73.10;;;;;;5153336;28;20325;-32
2022/03/12 04:25:13;;;;;;;;;;;-0.50;72.70;;;;;;5152548;28;20440;-32
2022/03/12 04:27:46;;;;;;;;;;;-0.50;72.50;;;;;;5149207;28;19936;-32
2022/03/12 04:30:18;;;;;;;;;;;-0.50;73.10;;;;;;5150114;28;19948;-32
2022/03/12 04:32:51;;;;;;;;;;;-0.50;72.80;;;;;;5145902;28;19930;-32
2022/03/12 04:35:24;;;;;;;;;;;-0.50;73.10;;;;;;5150932;28;19925;-32
2022/03/12 04:37:56;;;;;;;;;;;-0.50;73.50;;;;;;5156332;28;19926;-32
2022/03/12 04:40:29;;;;;;;;;;;-0.60;73.00;;;;;;5152251;28;20384;-32
2022/03/12 04:43:04;;;;;;;;;;;-0.60;73.10;;;;;;5156922;28;19925;-32
2022/03/12 04:45:37;;;;;;;;;;;-0.60;72.90;;;;;;5148154;28;19929;-32
2022/03/12 04:48:12;;;;;;;;;;;-0.50;73.30;;;;;;5141332;28;21346;-32
2022/03/12 04:50:44;;;;;;;;;;;-0.60;73.00;;;;;;5154720;28;19929;-32
2022/03/12 04:53:17;;;;;;;;;;;-0.50;73.20;;;;;;5147639;28;19936;-31
2022/03/12 04:55:49;;;;;;;;;;;-0.60;72.60;;;;;;5143690;28;19937;-32
2022/03/12 04:58:21;;;;;;;;;;;-0.60;73.00;;;;;;5157159;28;19929;-32
2022/03/12 05:00:54;;;;;;;;;;;-0.60;72.80;;;;;;5149469;28;19925;-32
2022/03/12 05:03:27;;;;;;;;;;;-0.60;73.20;;;;;;5130292;28;20621;-32
2022/03/12 05:06:03;;;;;;;;;;;-0.50;73.10;;;;;;5157521;28;20521;-32
2022/03/12 05:08:36;;;;;;;;;;;-0.60;72.70;;;;;;5153348;28;20231;-32
2022/03/12 05:11:08;;;;;;;;;;;-0.60;73.50;;;;;;5141969;28;20025;-32
2022/03/12 05:13:42;;;;;;;;;;;-0.60;73.10;;;;;;5147753;28;19953;-32
2022/03/12 05:16:15;;;;;;;;;;;-0.60;73.00;;;;;;5148838;28;19926;-32
2022/03/12 05:18:47;;;;;;;;;;;-0.70;72.90;;;;;;5139269;28;19925;-32
2022/03/12 05:21:20;;;;;;;;;;;-0.60;73.40;;;;;;5150536;28;19926;-32
2022/03/12 05:23:52;;;;;;;;;;;-0.60;73.30;;;;;;5149126;28;19926;-31
2022/03/12 05:26:24;;;;;;;;;;;-0.70;73.70;;;;;;5146936;28;19930;-31
2022/03/12 05:28:56;;;;;;;;;;;-0.70;74.10;;;;;;5141246;28;20296;-31
2022/03/12 05:31:29;;;;;;;;;;;-0.70;74.20;;;;;;5140547;28;19925;-31
2022/03/12 05:34:01;;;;;;;;;;;-0.70;73.90;;;;;;5132559;28;20321;-31
2022/03/12 05:36:33;;;;;;;;;;;-0.70;73.90;;;;;;5139850;28;19930;-32
2022/03/12 05:39:05;;;;;;;;;;;-0.40;73.80;;;;;;5130814;28;19925;-31
2022/03/12 05:41:38;;;;;;;;;;;-0.80;73.20;;;;;;5143787;28;19929;-31
2022/03/12 05:44:14;;;;;;;;;;;-0.70;73.80;;;;;;5139642;28;20288;-31
2022/03/12 05:46:47;;;;;;;;;;;-0.80;73.80;;;;;;5145579;28;20412;-31
2022/03/12 05:49:20;;;;;;;;;;;-0.70;73.30;;;;;;5133629;28;20302;-31
2022/03/12 05:51:52;;;;;;;;;;;-0.80;74.20;;;;;;5137759;28;19929;-31
2022/03/12 05:54:24;;;;;;;;;;;-0.80;74.40;;;;;;5143677;28;20396;-31
2022/03/12 05:56:57;;;;;;;;;;;-0.70;73.80;;;;;;5143566;28;20250;-31
2022/03/12 05:59:29;;;;;;;;;;;-0.70;73.70;;;;;;5142460;28;19933;-31
2022/03/12 06:02:01;;;;;;;;;;;-0.70;73.40;;;;;;5133814;28;19926;-31
2022/03/12 06:04:34;;;;;;;;;;;-0.70;73.40;;;;;;5138431;28;19930;-31
2022/03/12 06:07:09;;;;;;;;;;;-0.70;74.10;;;;;;5138962;28;19956;-31
2022/03/12 06:09:41;;;;;;;;;;;-0.60;74.10;;;;;;5134245;28;20217;-31
2022/03/12 06:12:17;;;;;;;;;;;-0.60;74.50;;;;;;5131088;28;19936;-42
2022/03/12 06:14:51;;;;;;;;;;;-0.70;73.90;;;;;;5134113;28;19930;-42
2022/03/12 06:17:24;;;;;;;;;;;-0.80;74.20;;;;;;5136641;28;19929;-42
2022/03/12 06:19:57;;;;;;;;;;;-0.60;73.60;;;;;;5139346;28;19925;-43
2022/03/12 06:22:29;;;;;;;;;;;-0.20;74.90;;;;;;5118266;28;20279;-43
2022/03/12 06:25:01;;;;;;;;;;;-0.60;74.00;;;;;;5142715;28;19930;-43
2022/03/12 06:27:37;;;;;;;;;;;-0.60;73.70;;;;;;5139119;28;19972;-42
2022/03/12 06:30:11;;;;;;;;;;;-0.30;75.50;;;;;;5120901;28;19929;-40
2022/03/12 06:32:43;;;;;;;;;;;-0.50;74.70;;;;;;5119376;28;19929;-40
2022/03/12 06:35:16;;;;;;;;;;;-0.50;75.30;;;;;;5122877;28;19925;-42
2022/03/12 06:37:48;;;;;;;;;;;-0.40;75.20;;;;;;5128797;28;19929;-42
2022/03/12 06:40:22;;;;;;;;;;;-0.40;74.30;;;;;;5127511;28;19928;-43
2022/03/12 06:42:59;;;;;;;;;;;-0.40;73.90;;;;;;5135901;28;19926;-42
2022/03/12 06:45:32;;;;;;;;;;;-0.30;74.30;;;;;;5138087;28;20293;-42
2022/03/12 06:48:05;;;;;;;;;;;-0.40;73.70;;;;;;5149689;28;20005;-41
2022/03/12 06:50:38;;;;;;;;;;;-0.20;73.90;;;;;;5140214;28;20468;-41
2022/03/12 06:53:10;;;;;;;;;;;-0.20;73.30;;;;;;5144315;28;20350;-41
2022/03/12 06:55:42;;;;;;;;;;;-0.10;72.80;;;;;;5142289;28;20267;-41
2022/03/12 06:58:16;;;;;;;;;;;0.00;73.40;;;;;;5144222;28;19932;-42
2022/03/12 07:00:48;;;;;;;;;;;0.00;72.30;;;;;;5133942;28;19922;-42
2022/03/12 07:03:21;;;;;;;;;;;0.10;73.10;;;;;;5141909;28;20381;-41
2022/03/12 07:05:53;;;;;;;;;;;0.20;71.90;;;;;;5132381;28;20060;-42
2022/03/12 07:08:25;;;;;;;;;;;0.30;72.40;;;;;;5134996;28;19929;-42
2022/03/12 07:10:57;;;;;;;;;;;0.30;72.40;;;;;;5134255;28;20318;-42
2022/03/12 07:13:30;;;;;;;;;;;0.40;71.20;;;;;;5137571;28;19930;-42
2022/03/12 07:16:03;;;;;;;;;;;0.50;70.70;;;;;;5104737;28;19953;-42
2022/03/12 07:18:35;;;;;;;;;;;0.50;70.70;;;;;;5136670;28;19926;-41
2022/03/12 07:21:07;;;;;;;;;;;0.60;70.60;;;;;;5131138;28;19930;-42
2022/03/12 07:23:40;;;;;;;;;;;0.80;69.90;;;;;;5127602;28;19928;-41
2022/03/12 07:26:14;;;;;;;;;;;0.80;70.30;;;;;;5132046;28;20290;-42
2022/03/12 07:28:47;;;;;;;;;;;0.80;70.30;;;;;;5135702;28;20309;-42
2022/03/12 07:31:22;;;;;;;;;;;0.90;70.20;;;;;;5128529;28;20020;-42
2022/03/12 07:33:56;;;;;;;;;;;1.00;69.70;;;;;;5133640;28;20405;-41
2022/03/12 07:36:28;;;;;;;;;;;1.10;69.00;;;;;;5132690;28;20386;-42
2022/03/12 07:39:03;;;;;;;;;;;1.20;69.40;;;;;;5134110;28;20297;-40
2022/03/12 07:41:35;;;;;;;;;;;1.30;70.60;;;;;;5134365;28;19945;-43
2022/03/12 07:44:08;;;;;;;;;;;1.40;69.30;;;;;;5139754;28;19926;-41
2022/03/12 07:46:40;;;;;;;;;;;1.50;68.90;;;;;;5133924;28;19922;-43
2022/03/12 07:49:13;;;;;;;;;;;1.50;69.20;;;;;;5140829;28;19925;-42
2022/03/12 07:51:47;;;;;;;;;;;1.60;69.00;;;;;;5141047;28;20500;-42
2022/03/12 07:54:19;;;;;;;;;;;1.70;68.30;;;;;;5138011;28;21139;-41
2022/03/12 07:56:52;;;;;;;;;;;1.80;68.60;;;;;;5130255;28;20381;-41
2022/03/12 07:59:25;;;;;;;;;;;1.90;70.40;;;;;;5128274;28;19930;-41
2022/03/12 08:01:58;;;;;;;;;;;1.90;69.10;;;;;;5123236;28;19929;-42
2022/03/12 08:04:33;;;;;;;;;;;2.10;68.00;;;;;;5140296;28;19929;-41
2022/03/12 08:07:05;;;;;;;;;;;2.20;68.80;;;;;;5142812;28;19930;-42
2022/03/12 08:09:37;;;;;;;;;;;2.30;68.10;;;;;;5139277;28;19930;-43
2022/03/12 08:12:09;;;;;;;;;;;2.50;68.40;;;;;;5132022;28;20271;-42
2022/03/12 08:14:44;;;;;;;;;;;2.60;67.60;;;;;;5139636;28;20329;-42
2022/03/12 08:17:19;;;;;;;;;;;2.70;67.60;;;;;;5128570;28;20373;-42
2022/03/12 08:19:52;;;;;;;;;;;2.80;67.00;;;;;;5129486;28;20305;-41
2022/03/12 08:22:25;;;;;;;;;;;3.00;69.10;;;;;;5132525;28;19942;-42
2022/03/12 08:24:57;;;;;;;;;;;3.10;68.60;;;;;;5146497;28;19926;-42
2022/03/12 08:27:30;;;;;;;;;;;3.20;66.20;;;;;;5128311;28;20106;-42
2022/03/12 08:30:07;;;;;;;;;;;3.30;66.70;;;;;;5131061;28;20526;-42
2022/03/12 08:32:41;;;;;;;;;;;3.40;66.30;;;;;;5135053;28;20397;-41
2022/03/12 08:35:14;;;;;;;;;;;3.40;66.70;;;;;;5145186;28;19932;-41
2022/03/12 08:37:46;;;;;;;;;;;3.60;68.10;;;;;;5146788;28;20603;-40
2022/03/12 08:40:19;;;;;;;;;;;3.70;65.90;;;;;;5137107;28;19930;-42
2022/03/12 08:42:52;;;;;;;;;;;3.80;66.30;;;;;;5138293;28;19922;-42
2022/03/12 08:45:24;;;;;;;;;;;3.80;66.00;;;;;;5124391;28;19945;-41
2022/03/12 08:47:57;;;;;;;;;;;3.80;65.70;;;;;;5142864;28;19929;-42
2022/03/12 08:50:30;;;;;;;;;;;3.90;65.00;;;;;;5139084;28;19930;-42
2022/03/12 08:53:02;;;;;;;;;;;4.00;65.20;;;;;;5134246;28;19928;-42
2022/03/12 08:55:35;;;;;;;;;;;4.10;65.50;;;;;;5133227;28;20165;-42
2022/03/12 08:58:07;;;;;;;;;;;4.20;67.20;;;;;;5115061;28;19932;-42
2022/03/12 09:00:40;;;;;;;;;;;4.30;67.60;;;;;;5131830;28;19944;-39
2022/03/12 09:03:12;;;;;;;;;;;4.40;65.90;;;;;;5140894;28;19921;-41
2022/03/12 09:05:45;;;;;;;;;;;4.50;65.70;;;;;;5151509;28;19928;-42
2022/03/12 09:08:18;;;;;;;;;;;4.50;64.10;;;;;;5139768;28;19930;-40
2022/03/12 09:10:50;;;;;;;;;;;4.70;63.80;;;;;;5136162;28;19941;-42
2022/03/12 09:13:23;;;;;;;;;;;4.70;64.80;;;;;;5141816;28;19930;-42
2022/03/12 09:15:56;;;;;;;;;;;4.80;63.50;;;;;;5143598;28;19926;-39
2022/03/12 09:18:28;;;;;;;;;;;4.90;63.70;;;;;;5137562;28;19926;-39
2022/03/12 09:21:01;;;;;;;;;;;4.90;63.80;;;;;;5120277;28;19929;-40
2022/03/12 09:23:34;;;;;;;;;;;4.90;64.30;;;;;;5133277;28;19953;-42
2022/03/12 09:26:06;;;;;;;;;;;5.20;63.60;;;;;;5144140;28;19953;-40
2022/03/12 09:28:38;;;;;;;;;;;5.20;63.90;;;;;;5126324;28;20488;-42
2022/03/12 09:31:11;;;;;;;;;;;5.40;63.00;;;;;;5139988;28;20175;-40
2022/03/12 09:33:43;;;;;;;;;;;5.40;63.10;;;;;;5134771;28;20307;-41
2022/03/12 09:36:16;;;;;;;;;;;5.50;62.20;;;;;;5149007;28;19960;-41
2022/03/12 09:38:48;;;;;;;;;;;5.70;62.70;;;;;;5147067;28;19921;-42
2022/03/12 09:41:22;;;;;;;;;;;5.70;62.10;;;;;;5141040;28;20074;-41
2022/03/12 09:43:55;;;;;;;;;;;5.90;61.90;;;;;;5145566;28;19929;-41
2022/03/12 09:46:27;;;;;;;;;;;5.80;61.70;;;;;;5151367;28;19921;-41
2022/03/12 09:49:00;;;;;;;;;;;5.90;61.30;;;;;;5139178;28;19929;-42
2022/03/12 09:51:32;;;;;;;;;;;6.00;62.20;;;;;;5151906;28;20503;-41
2022/03/12 09:54:05;;;;;;;;;;;6.10;62.00;;;;;;5137950;28;19936;-42
2022/03/12 09:56:38;;;;;;;;;;;6.30;61.80;;;;;;5137743;28;19953;-41
2022/03/12 09:59:10;;;;;;;;;;;6.40;61.20;;;;;;5143974;28;20010;-42
2022/03/12 10:01:45;;;;;;;;;;;6.70;59.00;;;;;;5177112;23;19936;-89
2022/03/12 10:04:23;;;;;;;;;;;6.70;59.00;;;;;;5157929;28;19929;-89
2022/03/12 10:07:23;;;;;;;;;;;6.80;59.10;;;;;;5155852;28;19921;-88
2022/03/12 10:13:41;;;;;;;;;;;7.00;58.10;;;;;;5144143;28;19948;-88
2022/03/12 10:16:14;;;;;;;;;;;7.20;58.70;;;;;;5151747;23;19928;-31
2022/03/12 10:18:47;;;;;;;;;;;7.20;58.40;;;;;;5140618;28;19948;-31
2022/03/12 10:21:20;;;;;;;;;;;7.30;58.40;;;;;;5137358;28;19928;-31
2022/03/12 10:23:53;;;;;;;;;;;7.50;57.90;;;;;;5107425;28;19925;-31
2022/03/12 10:26:25;;;;;;;;;;;7.60;57.30;;;;;;5128397;28;21395;-31
2022/03/12 10:28:57;;;;;;;;;;;7.70;57.70;;;;;;5179252;23;19929;-39
2022/03/12 10:31:30;;;;;;;;;;;7.80;57.70;;;;;;5188441;28;19929;-37
2022/03/12 10:34:15;;;;;;;;;;;7.90;56.10;;;;;;5190780;28;20374;-38
2022/03/12 10:36:49;;;;;;;;;;;8.00;56.20;;;;;;5186902;28;19928;-37
2022/03/12 10:39:35;;;;;;;;;;;8.10;55.40;;;;;;5186094;28;19935;-37
2022/03/12 10:42:08;;;;;;;;;;;8.20;55.40;;;;;;5184789;28;19925;-37
2022/03/12 10:44:41;;;;;;;;;;;8.20;56.30;;;;;;5194362;28;19929;-38
2022/03/12 10:47:18;;;;;;;;;;;8.40;55.40;;;;;;5167496;28;19925;-38
2022/03/12 10:49:58;;;;;;;;;;;8.60;55.00;;;;;;5176223;28;19928;-38
2022/03/12 10:52:32;;;;;;;;;;;8.70;54.90;;;;;;5166994;28;20824;-39
2022/03/12 10:55:16;;;;;;;;;;;8.80;54.40;;;;;;5173409;28;20269;-37
2022/03/12 10:58:02;;;;;;;;;;;8.80;54.00;;;;;;5168207;28;20401;-37
2022/03/12 11:00:37;;;;;;;;;;;9.00;53.60;;;;;;5174097;28;20431;-39
2022/03/12 11:03:12;;;;;;;;;;;9.00;53.60;;;;;;5191713;28;20273;-38
2022/03/12 11:05:44;;;;;;;;;;;9.10;53.40;;;;;;5158396;28;19928;-38
2022/03/12 11:08:27;;;;;;;;;;;9.20;53.70;;;;;;5185942;28;19924;-38
2022/03/12 11:11:13;;;;;;;;;;;9.20;53.20;;;;;;5187486;28;20304;-38
2022/03/12 11:13:47;;;;;;;;;;;9.30;53.60;;;;;;5183673;28;20105;-37
2022/03/12 11:16:21;;;;;;;;;;;9.40;53.90;;;;;;5189049;28;19929;-37
2022/03/12 11:19:01;;;;;;;;;;;9.50;54.00;;;;;;5183292;28;19928;-40
2022/03/12 11:21:39;;;;;;;;;;;9.60;53.00;;;;;;5179823;28;19928;-38
2022/03/12 11:24:15;;;;;;;;;;;9.70;54.00;;;;;;5164251;28;19936;-45
2022/03/12 11:26:49;;;;;;;;;;;9.70;53.30;;;;;;5182548;28;19928;-40
2022/03/12 11:29:26;;;;;;;;;;;9.80;51.80;;;;;;5181327;28;19927;-41
2022/03/12 11:31:58;;;;;;;;;;;9.80;52.20;;;;;;5156844;28;19935;-44
2022/03/12 11:34:40;;;;;;;;;;;9.90;52.60;;;;;;5174126;28;19929;-42
2022/03/12 11:37:17;;;;;;;;;;;10.00;52.30;;;;;;5159676;28;19928;-43
2022/03/12 11:39:51;;;;;;;;;;;10.00;51.80;;;;;;5186532;28;19948;-43
2022/03/12 11:42:24;;;;;;;;;;;10.00;51.80;;;;;;5182118;28;20415;-44
2022/03/12 11:44:58;;;;;;;;;;;10.10;51.60;;;;;;5184345;28;19933;-45
2022/03/12 11:47:32;;;;;;;;;;;10.20;52.40;;;;;;5184163;28;19940;-42
2022/03/12 11:50:05;;;;;;;;;;;10.30;50.90;;;;;;5186962;28;20435;-43
2022/03/12 11:52:38;;;;;;;;;;;10.30;50.90;;;;;;5184258;28;19924;-42
2022/03/12 11:55:30;;;;;;;;;;;10.30;51.60;;;;;;5185553;28;19921;-40
2022/03/12 11:58:02;;;;;;;;;;;10.40;51.00;;;;;;5177819;28;19936;-43
2022/03/12 12:00:35;;;;;;;;;;;10.40;50.50;;;;;;5188361;28;19929;-40
2022/03/12 12:03:07;;;;;;;;;;;10.50;50.40;;;;;;5180147;28;20190;-44
2022/03/12 12:05:43;;;;;;;;;;;10.50;51.20;;;;;;5170298;28;19929;-43
2022/03/12 12:08:15;;;;;;;;;;;10.50;51.20;;;;;;5189604;28;20360;-40
2022/03/12 12:10:49;;;;;;;;;;;10.60;50.70;;;;;;5191077;28;19928;-44
2022/03/12 12:13:21;;;;;;;;;;;10.70;50.30;;;;;;5185569;28;19928;-44
2022/03/12 12:15:56;;;;;;;;;;;10.70;50.90;;;;;;5188841;28;19931;-43
2022/03/12 12:18:28;;;;;;;;;;;10.80;50.00;;;;;;5185237;28;19935;-47
2022/03/12 12:21:00;;;;;;;;;;;10.70;50.60;;;;;;5165296;28;20334;-44
2022/03/12 12:23:33;;;;;;;;;;;10.80;50.60;;;;;;5166444;28;20128;-43
2022/03/12 12:26:08;;;;;;;;;;;10.80;51.50;;;;;;5187035;28;20769;-42
2022/03/12 12:28:48;;;;;;;;;;;10.90;51.00;;;;;;5187046;28;19936;-41
2022/03/12 12:31:24;;;;;;;;;;;10.90;50.90;;;;;;5168186;28;19932;-42
2022/03/12 12:34:00;;;;;;;;;;;10.80;51.00;;;;;;5164698;28;19928;-38
2022/03/12 12:36:32;;;;;;;;;;;10.80;51.20;;;;;;5157849;28;19929;-37
2022/03/12 12:39:10;;;;;;;;;;;10.80;51.00;;;;;;5161757;28;19929;-37
2022/03/12 12:41:53;;;;;;;;;;;10.80;51.10;;;;;;5166529;28;19925;-38
2022/03/12 12:44:41;;;;;;;;;;;10.90;50.50;;;;;;5173949;28;20343;-38
2022/03/12 12:47:20;;;;;;;;;;;11.00;49.90;;;;;;5151093;28;19935;-37
2022/03/12 12:49:54;;;;;;;;;;;11.00;49.20;;;;;;5172679;28;20190;-40
2022/03/12 12:52:30;;;;;;;;;;;11.10;50.50;;;;;;5178431;28;19925;-39
2022/03/12 12:55:05;;;;;;;;;;;11.20;49.20;;;;;;5178425;28;19928;-38
2022/03/12 12:57:45;;;;;;;;;;;11.30;49.30;;;;;;5184140;28;19929;-40
2022/03/12 13:00:20;;;;;;;;;;;11.30;48.90;;;;;;5179643;28;20483;-37
2022/03/12 13:02:52;;;;;;;;;;;11.30;48.70;;;;;;5189929;28;19928;-38
2022/03/12 13:05:41;;;;;;;;;;;11.30;49.10;;;;;;5194772;28;19928;-38
2022/03/12 13:08:14;;;;;;;;;;;11.30;49.30;;;;;;5187143;28;20400;-38
2022/03/12 13:10:47;;;;;;;;;;;11.30;48.30;;;;;;5195288;28;19921;-38
2022/03/12 13:13:21;;;;;;;;;;;11.40;48.30;;;;;;5190460;28;19929;-37
2022/03/12 13:15:55;;;;;;;;;;;11.30;48.40;;;;;;5187797;28;20415;-37
2022/03/12 13:18:27;;;;;;;;;;;11.30;49.40;;;;;;5183644;28;20407;-37
2022/03/12 13:21:00;;;;;;;;;;;11.40;48.50;;;;;;5186641;28;19931;-38
2022/03/12 13:23:41;;;;;;;;;;;11.50;48.00;;;;;;5190730;28;19928;-38
2022/03/12 13:26:16;;;;;;;;;;;11.40;48.30;;;;;;5194375;28;19929;-37
2022/03/12 13:28:51;;;;;;;;;;;11.40;46.40;;;;;;5184161;28;20202;-39
2022/03/12 13:31:24;;;;;;;;;;;11.50;46.90;;;;;;5187359;28;19927;-38
2022/03/12 13:33:59;;;;;;;;;;;11.50;46.70;;;;;;5188861;28;20385;-43
2022/03/12 13:36:33;;;;;;;;;;;11.60;46.90;;;;;;5189794;28;20377;-42
2022/03/12 13:39:06;;;;;;;;;;;11.60;47.20;;;;;;5186499;28;20389;-44
2022/03/12 13:41:43;;;;;;;;;;;11.60;48.60;;;;;;5181501;28;19932;-40
2022/03/12 13:44:19;;;;;;;;;;;11.60;48.00;;;;;;5187552;28;19932;-40
2022/03/12 13:46:51;;;;;;;;;;;11.70;49.20;;;;;;5187770;28;19925;-41
2022/03/12 13:49:24;;;;;;;;;;;11.70;48.90;;;;;;5177229;28;20328;-42
2022/03/12 13:51:57;;;;;;;;;;;11.70;47.10;;;;;;5176482;28;20372;-44
2022/03/12 13:54:29;;;;;;;;;;;11.80;47.60;;;;;;5181962;28;19921;-40
2022/03/12 13:57:02;;;;;;;;;;;11.80;47.80;;;;;;5186335;28;20487;-43
2022/03/12 13:59:34;;;;;;;;;;;11.80;48.20;;;;;;5194347;28;19925;-43
2022/03/12 14:02:11;;;;;;;;;;;11.90;48.70;;;;;;5180825;28;20522;-46
2022/03/12 14:04:45;;;;;;;;;;;11.90;48.40;;;;;;5186117;28;21269;-42
2022/03/12 14:07:22;;;;;;;;;;;11.90;48.40;;;;;;5194689;28;20049;-40
2022/03/12 14:10:03;;;;;;;;;;;11.90;48.00;;;;;;5195795;28;20103;-40
2022/03/12 14:12:35;;;;;;;;;;;11.90;47.90;;;;;;5193820;28;19921;-43
2022/03/12 14:15:15;;;;;;;;;;;11.90;48.00;;;;;;5184743;28;19935;-43
2022/03/12 14:17:50;;;;;;;;;;;12.00;48.80;;;;;;5188386;28;19928;-41
2022/03/12 14:20:25;;;;;;;;;;;12.00;48.70;;;;;;5190018;28;19924;-40
2022/03/12 14:22:58;;;;;;;;;;;12.00;48.50;;;;;;5159010;28;20284;-39
2022/03/12 14:25:50;;;;;;;;;;;12.00;48.20;;;;;;5178980;28;19936;-39
2022/03/12 14:28:23;;;;;;;;;;;12.10;47.90;;;;;;5158456;28;19955;-40
2022/03/12 14:30:56;;;;;;;;;;;12.20;48.20;;;;;;5186826;28;19932;-38
2022/03/12 14:33:29;;;;;;;;;;;12.30;47.90;;;;;;5187215;28;20470;-40
2022/03/12 14:36:01;;;;;;;;;;;12.40;47.20;;;;;;5167838;28;19932;-39
2022/03/12 14:38:33;;;;;;;;;;;12.40;47.30;;;;;;5160704;28;20219;-40
2022/03/12 14:41:05;;;;;;;;;;;12.50;46.80;;;;;;5180940;28;19924;-39
2022/03/12 14:43:39;;;;;;;;;;;12.50;47.00;;;;;;5188457;28;19936;-38
2022/03/12 14:46:11;;;;;;;;;;;12.50;46.70;;;;;;5183312;28;19932;-39
2022/03/12 14:48:44;;;;;;;;;;;12.50;47.10;;;;;;5162666;28;19924;-40
2022/03/12 14:51:16;;;;;;;;;;;12.50;46.70;;;;;;5177359;28;19991;-37
2022/03/12 14:53:49;;;;;;;;;;;12.50;46.70;;;;;;5168800;28;19921;-36
2022/03/12 14:56:21;;;;;;;;;;;12.50;46.30;;;;;;5173839;28;19921;-38
2022/03/12 14:58:54;;;;;;;;;;;12.40;46.00;;;;;;5184330;28;20322;-38
2022/03/12 15:01:27;;;;;;;;;;;12.50;46.30;;;;;;5187150;28;19944;-40
2022/03/12 15:03:59;;;;;;;;;;;12.50;45.30;;;;;;5182727;28;19932;-38
2022/03/12 15:06:35;;;;;;;;;;;12.40;45.80;;;;;;5185918;28;21282;-38